createdAt,value
2023-05-14T00:13:18.232Z,100
2023-05-14T00:33:20.032Z,100
2023-05-14T01:03:21.774Z,100
2023-05-14T01:23:23.723Z,100
2023-05-14T01:33:23.988Z,100
2023-05-14T01:43:24.588Z,100
2023-05-14T01:53:25.548Z,100
2023-05-14T02:13:26.843Z,100
2023-05-14T02:23:34.408Z,100
2023-05-14T02:33:27.826Z,100
2023-05-14T02:43:28.197Z,100
2023-05-14T02:53:28.601Z,100
2023-05-14T03:03:29.620Z,100
2023-05-14T03:13:30.093Z,100
2023-05-14T03:23:30.413Z,100
2023-05-14T03:33:30.646Z,100
2023-05-14T03:43:30.991Z,100
2023-05-14T03:53:31.946Z,100
2023-05-14T04:03:32.286Z,100
2023-05-14T04:13:33.027Z,100
2023-05-14T04:23:33.385Z,100
2023-05-14T04:33:33.887Z,100
2023-05-14T04:43:34.647Z,100
2023-05-14T04:53:35.163Z,100
2023-05-14T05:03:35.365Z,100
2023-05-14T05:13:36.323Z,100
2023-05-14T05:33:37.626Z,100
2023-05-14T05:43:38.509Z,98
2023-05-14T05:53:38.728Z,96
2023-05-14T06:03:39.550Z,95
2023-05-14T06:13:40.153Z,93
2023-05-14T06:23:41.007Z,93
2023-05-14T06:33:41.377Z,89
2023-05-14T06:43:42.224Z,86
2023-05-14T06:53:42.767Z,85
2023-05-14T07:03:43.545Z,84
2023-05-14T07:13:44.245Z,84
2023-05-14T07:23:45.165Z,82
2023-05-14T07:33:46.263Z,81
2023-05-14T07:43:47.171Z,81
2023-05-14T07:53:47.348Z,81
2023-05-14T08:03:48.372Z,79
2023-05-14T08:13:49.209Z,75
2023-05-14T08:23:49.847Z,75
2023-05-14T08:33:50.387Z,72
2023-05-14T08:43:51.015Z,70
2023-05-14T08:53:51.889Z,69
2023-05-14T09:03:52.733Z,67
2023-05-14T09:13:53.508Z,65
2023-05-14T09:23:53.823Z,63
2023-05-14T09:33:54.152Z,63
2023-05-14T09:43:54.323Z,64
2023-05-14T09:53:55.223Z,63
2023-05-14T10:13:56.671Z,63
2023-05-14T10:23:57.015Z,62
2023-05-14T10:33:59.256Z,60
2023-05-14T10:43:57.403Z,56
2023-05-14T10:53:57.569Z,54
2023-05-14T11:13:58.464Z,55
2023-05-14T11:23:59.054Z,56
2023-05-14T11:33:59.197Z,54
2023-05-14T11:44:00.013Z,55
2023-05-14T11:54:00.610Z,53
2023-05-14T12:14:01.794Z,56
2023-05-14T12:24:02.818Z,55
2023-05-14T12:34:03.404Z,55
2023-05-14T12:44:04.147Z,57
2023-05-14T13:04:05.131Z,55
2023-05-14T13:24:06.082Z,55
2023-05-14T13:34:06.388Z,53
2023-05-14T13:44:07.220Z,53
2023-05-14T13:54:07.873Z,51
2023-05-14T14:04:08.426Z,52
2023-05-14T14:14:08.512Z,51
2023-05-14T14:24:09.255Z,50
2023-05-14T14:44:10.393Z,48
2023-05-14T14:54:10.752Z,49
2023-05-14T15:04:11.459Z,51
2023-05-14T15:14:12.363Z,52
2023-05-14T15:24:13.026Z,54
2023-05-14T15:34:13.415Z,54
2023-05-14T15:44:14.079Z,54
2023-05-14T15:54:14.607Z,55
2023-05-14T16:04:15.420Z,54
2023-05-14T16:24:16.005Z,50
2023-05-14T16:44:16.778Z,53
2023-05-14T17:04:18.248Z,54
2023-05-14T17:24:18.855Z,55
2023-05-14T17:45:17.406Z,54
2023-05-14T18:02:33.165Z,56
2023-05-14T18:12:33.809Z,57
2023-05-14T18:22:34.532Z,60
2023-05-14T18:32:35.339Z,63
2023-05-14T18:42:35.520Z,64
2023-05-14T18:52:36.356Z,64
2023-05-14T19:02:37.282Z,65
2023-05-14T19:12:37.408Z,66
2023-05-14T19:32:38.435Z,71
2023-05-14T19:52:39.691Z,77
2023-05-14T20:12:40.965Z,80
2023-05-14T20:32:42.345Z,84
2023-05-14T20:52:42.576Z,85
2023-05-14T21:12:44.774Z,87
2023-05-14T21:32:44.977Z,90
2023-05-14T21:52:46.249Z,91
2023-05-14T22:32:48.452Z,93
